sensor_id;sensor_type;location;lat;lon;timestamp;P1;durP1;ratioP1;P2;durP2;ratioP2
4011;SDS011;2020;48.682;9.024;2024-03-25T00:00:43;1.20;;;1.10;;
4011;SDS011;2020;48.682;9.024;2024-03-25T00:03:08;1.27;;;1.03;;
4011;SDS011;2020;48.682;9.024;2024-03-25T00:05:33;2.07;;;1.43;;
4011;SDS011;2020;48.682;9.024;2024-03-25T00:07:59;1.77;;;1.33;;
4011;SDS011;2020;48.682;9.024;2024-03-25T00:10:24;1.53;;;1.53;;
4011;SDS011;2020;48.682;9.024;2024-03-25T00:12:49;1.47;;;1.37;;
4011;SDS011;2020;48.682;9.024;2024-03-25T00:15:19;1.50;;;1.40;;
4011;SDS011;2020;48.682;9.024;2024-03-25T00:17:45;1.53;;;1.20;;
4011;SDS011;2020;48.682;9.024;2024-03-25T00:20:11;2.10;;;1.40;;
4011;SDS011;2020;48.682;9.024;2024-03-25T00:22:37;1.43;;;1.33;;
4011;SDS011;2020;48.682;9.024;2024-03-25T00:25:03;3.47;;;1.30;;
4011;SDS011;2020;48.682;9.024;2024-03-25T00:27:28;1.70;;;1.60;;
4011;SDS011;2020;48.682;9.024;2024-03-25T00:29:55;3.60;;;1.90;;
4011;SDS011;2020;48.682;9.024;2024-03-25T00:32:20;3.73;;;1.60;;
4011;SDS011;2020;48.682;9.024;2024-03-25T00:34:45;1.50;;;1.40;;
4011;SDS011;2020;48.682;9.024;2024-03-25T00:37:11;1.87;;;1.77;;
4011;SDS011;2020;48.682;9.024;2024-03-25T00:39:36;1.37;;;1.37;;
4011;SDS011;2020;48.682;9.024;2024-03-25T00:42:01;9.37;;;1.97;;
4011;SDS011;2020;48.682;9.024;2024-03-25T00:44:26;2.70;;;1.30;;
4011;SDS011;2020;48.682;9.024;2024-03-25T00:46:52;2.37;;;2.27;;
4011;SDS011;2020;48.682;9.024;2024-03-25T00:49:17;4.20;;;1.53;;
4011;SDS011;2020;48.682;9.024;2024-03-25T00:51:42;4.43;;;2.23;;
4011;SDS011;2020;48.682;9.024;2024-03-25T00:54:08;2.20;;;1.47;;
4011;SDS011;2020;48.682;9.024;2024-03-25T00:56:33;2.00;;;1.27;;
4011;SDS011;2020;48.682;9.024;2024-03-25T00:58:58;3.83;;;1.70;;
4011;SDS011;2020;48.682;9.024;2024-03-25T01:01:28;4.60;;;1.77;;
4011;SDS011;2020;48.682;9.024;2024-03-25T01:03:56;1.70;;;1.60;;
4011;SDS011;2020;48.682;9.024;2024-03-25T01:06:22;4.17;;;1.37;;
4011;SDS011;2020;48.682;9.024;2024-03-25T01:08:47;2.50;;;1.60;;
4011;SDS011;2020;48.682;9.024;2024-03-25T01:11:12;3.27;;;1.33;;
4011;SDS011;2020;48.682;9.024;2024-03-25T01:13:38;1.50;;;1.40;;
4011;SDS011;2020;48.682;9.024;2024-03-25T01:16:03;4.37;;;1.60;;
4011;SDS011;2020;48.682;9.024;2024-03-25T01:18:28;1.30;;;1.30;;
4011;SDS011;2020;48.682;9.024;2024-03-25T01:20:54;3.70;;;2.30;;
4011;SDS011;2020;48.682;9.024;2024-03-25T01:23:19;1.87;;;1.77;;
4011;SDS011;2020;48.682;9.024;2024-03-25T01:25:45;5.70;;;1.83;;
4011;SDS011;2020;48.682;9.024;2024-03-25T01:28:10;1.93;;;1.83;;
4011;SDS011;2020;48.682;9.024;2024-03-25T01:30:35;1.93;;;1.93;;
4011;SDS011;2020;48.682;9.024;2024-03-25T01:33:01;3.47;;;2.57;;
4011;SDS011;2020;48.682;9.024;2024-03-25T01:35:27;2.03;;;1.70;;
4011;SDS011;2020;48.682;9.024;2024-03-25T01:37:52;1.43;;;1.43;;
4011;SDS011;2020;48.682;9.024;2024-03-25T01:40:18;7.07;;;1.80;;
4011;SDS011;2020;48.682;9.024;2024-03-25T01:42:43;5.30;;;1.67;;
4011;SDS011;2020;48.682;9.024;2024-03-25T01:45:09;1.90;;;1.73;;
4011;SDS011;2020;48.682;9.024;2024-03-25T01:47:35;3.20;;;2.90;;
4011;SDS011;2020;48.682;9.024;2024-03-25T01:50:00;2.33;;;2.23;;
4011;SDS011;2020;48.682;9.024;2024-03-25T01:52:28;5.00;;;2.00;;
4011;SDS011;2020;48.682;9.024;2024-03-25T01:54:54;2.33;;;2.23;;
4011;SDS011;2020;48.682;9.024;2024-03-25T01:57:19;1.60;;;1.50;;
4011;SDS011;2020;48.682;9.024;2024-03-25T01:59:45;2.83;;;1.87;;
4011;SDS011;2020;48.682;9.024;2024-03-25T02:02:11;1.63;;;1.53;;
4011;SDS011;2020;48.682;9.024;2024-03-25T02:04:38;2.23;;;2.07;;
4011;SDS011;2020;48.682;9.024;2024-03-25T02:07:04;1.97;;;1.60;;
4011;SDS011;2020;48.682;9.024;2024-03-25T02:09:32;2.20;;;1.70;;
4011;SDS011;2020;48.682;9.024;2024-03-25T02:11:58;1.53;;;1.43;;
4011;SDS011;2020;48.682;9.024;2024-03-25T02:14:24;3.50;;;2.00;;
4011;SDS011;2020;48.682;9.024;2024-03-25T02:16:49;8.03;;;2.33;;
4011;SDS011;2020;48.682;9.024;2024-03-25T02:19:15;5.60;;;1.70;;
4011;SDS011;2020;48.682;9.024;2024-03-25T02:21:40;2.83;;;2.63;;
4011;SDS011;2020;48.682;9.024;2024-03-25T02:24:06;1.97;;;1.80;;
4011;SDS011;2020;48.682;9.024;2024-03-25T02:26:34;2.13;;;2.03;;
4011;SDS011;2020;48.682;9.024;2024-03-25T02:29:00;6.80;;;1.80;;
4011;SDS011;2020;48.682;9.024;2024-03-25T02:31:26;3.43;;;1.73;;
4011;SDS011;2020;48.682;9.024;2024-03-25T02:33:51;2.30;;;2.07;;
4011;SDS011;2020;48.682;9.024;2024-03-25T02:36:16;2.47;;;2.27;;
4011;SDS011;2020;48.682;9.024;2024-03-25T02:38:42;2.43;;;1.57;;
4011;SDS011;2020;48.682;9.024;2024-03-25T02:41:07;3.90;;;1.70;;
4011;SDS011;2020;48.682;9.024;2024-03-25T02:43:33;2.93;;;2.50;;
4011;SDS011;2020;48.682;9.024;2024-03-25T02:45:58;1.70;;;1.60;;
4011;SDS011;2020;48.682;9.024;2024-03-25T02:48:24;2.10;;;2.00;;
4011;SDS011;2020;48.682;9.024;2024-03-25T02:50:49;2.33;;;2.00;;
4011;SDS011;2020;48.682;9.024;2024-03-25T02:53:14;1.90;;;1.80;;
4011;SDS011;2020;48.682;9.024;2024-03-25T02:55:39;1.93;;;1.83;;
4011;SDS011;2020;48.682;9.024;2024-03-25T02:58:05;6.60;;;2.10;;
4011;SDS011;2020;48.682;9.024;2024-03-25T03:00:30;1.20;;;1.20;;
4011;SDS011;2020;48.682;9.024;2024-03-25T03:02:55;2.93;;;2.70;;
4011;SDS011;2020;48.682;9.024;2024-03-25T03:05:20;3.17;;;2.07;;
4011;SDS011;2020;48.682;9.024;2024-03-25T03:07:46;2.43;;;2.23;;
4011;SDS011;2020;48.682;9.024;2024-03-25T03:10:11;2.07;;;1.97;;
4011;SDS011;2020;48.682;9.024;2024-03-25T03:12:36;3.40;;;2.23;;
4011;SDS011;2020;48.682;9.024;2024-03-25T03:15:02;2.30;;;2.20;;
4011;SDS011;2020;48.682;9.024;2024-03-25T03:17:27;2.80;;;2.27;;
4011;SDS011;2020;48.682;9.024;2024-03-25T03:19:52;1.40;;;1.40;;
4011;SDS011;2020;48.682;9.024;2024-03-25T03:22:17;3.87;;;2.53;;
4011;SDS011;2020;48.682;9.024;2024-03-25T03:24:43;5.53;;;3.03;;
4011;SDS011;2020;48.682;9.024;2024-03-25T03:27:08;4.73;;;2.60;;
4011;SDS011;2020;48.682;9.024;2024-03-25T03:29:33;3.90;;;2.07;;
4011;SDS011;2020;48.682;9.024;2024-03-25T03:31:58;1.77;;;1.67;;
4011;SDS011;2020;48.682;9.024;2024-03-25T03:34:24;1.63;;;1.63;;
4011;SDS011;2020;48.682;9.024;2024-03-25T03:36:50;3.43;;;1.70;;
4011;SDS011;2020;48.682;9.024;2024-03-25T03:39:15;2.67;;;2.27;;
4011;SDS011;2020;48.682;9.024;2024-03-25T03:41:41;2.50;;;2.07;;
4011;SDS011;2020;48.682;9.024;2024-03-25T03:44:06;4.47;;;2.73;;
4011;SDS011;2020;48.682;9.024;2024-03-25T03:46:31;1.87;;;1.77;;
4011;SDS011;2020;48.682;9.024;2024-03-25T03:48:57;1.57;;;1.47;;
4011;SDS011;2020;48.682;9.024;2024-03-25T03:51:22;3.23;;;2.70;;
4011;SDS011;2020;48.682;9.024;2024-03-25T03:53:47;2.20;;;2.10;;
4011;SDS011;2020;48.682;9.024;2024-03-25T03:56:12;2.90;;;2.37;;
4011;SDS011;2020;48.682;9.024;2024-03-25T03:58:38;11.90;;;3.20;;
4011;SDS011;2020;48.682;9.024;2024-03-25T04:01:03;2.87;;;2.57;;
4011;SDS011;2020;48.682;9.024;2024-03-25T04:03:29;1.83;;;1.60;;
4011;SDS011;2020;48.682;9.024;2024-03-25T04:05:55;3.97;;;2.10;;
4011;SDS011;2020;48.682;9.024;2024-03-25T04:08:20;2.60;;;2.40;;
4011;SDS011;2020;48.682;9.024;2024-03-25T04:10:46;4.40;;;2.50;;
4011;SDS011;2020;48.682;9.024;2024-03-25T04:13:11;1.60;;;1.40;;
4011;SDS011;2020;48.682;9.024;2024-03-25T04:15:38;2.03;;;1.70;;
4011;SDS011;2020;48.682;9.024;2024-03-25T04:18:04;2.63;;;2.43;;
4011;SDS011;2020;48.682;9.024;2024-03-25T04:20:37;1.73;;;1.63;;
4011;SDS011;2020;48.682;9.024;2024-03-25T04:23:03;2.50;;;2.03;;
4011;SDS011;2020;48.682;9.024;2024-03-25T04:25:29;2.20;;;2.10;;
4011;SDS011;2020;48.682;9.024;2024-03-25T04:27:55;3.90;;;1.87;;
4011;SDS011;2020;48.682;9.024;2024-03-25T04:30:20;1.93;;;1.80;;
4011;SDS011;2020;48.682;9.024;2024-03-25T04:32:46;2.10;;;1.63;;
4011;SDS011;2020;48.682;9.024;2024-03-25T04:35:11;1.87;;;1.83;;
4011;SDS011;2020;48.682;9.024;2024-03-25T04:37:36;4.53;;;2.40;;
4011;SDS011;2020;48.682;9.024;2024-03-25T04:40:02;2.53;;;2.30;;
4011;SDS011;2020;48.682;9.024;2024-03-25T04:42:27;4.30;;;2.10;;
4011;SDS011;2020;48.682;9.024;2024-03-25T04:44:53;2.57;;;2.37;;
4011;SDS011;2020;48.682;9.024;2024-03-25T04:47:18;2.43;;;2.03;;
4011;SDS011;2020;48.682;9.024;2024-03-25T04:49:44;1.87;;;1.77;;
4011;SDS011;2020;48.682;9.024;2024-03-25T04:52:12;2.57;;;2.47;;
4011;SDS011;2020;48.682;9.024;2024-03-25T04:54:41;1.80;;;1.70;;
4011;SDS011;2020;48.682;9.024;2024-03-25T04:57:07;1.40;;;1.30;;
4011;SDS011;2020;48.682;9.024;2024-03-25T04:59:33;2.13;;;2.03;;
4011;SDS011;2020;48.682;9.024;2024-03-25T05:02:01;3.70;;;2.27;;
4011;SDS011;2020;48.682;9.024;2024-03-25T05:04:26;2.20;;;2.00;;
4011;SDS011;2020;48.682;9.024;2024-03-25T05:06:51;2.60;;;2.50;;
4011;SDS011;2020;48.682;9.024;2024-03-25T05:09:17;5.17;;;2.13;;
4011;SDS011;2020;48.682;9.024;2024-03-25T05:11:42;6.10;;;2.60;;
4011;SDS011;2020;48.682;9.024;2024-03-25T05:14:08;2.87;;;2.77;;
4011;SDS011;2020;48.682;9.024;2024-03-25T05:16:33;6.00;;;3.73;;
4011;SDS011;2020;48.682;9.024;2024-03-25T05:18:58;10.73;;;5.57;;
4011;SDS011;2020;48.682;9.024;2024-03-25T05:21:24;10.97;;;6.30;;
4011;SDS011;2020;48.682;9.024;2024-03-25T05:23:49;4.60;;;3.60;;
4011;SDS011;2020;48.682;9.024;2024-03-25T05:26:14;4.63;;;2.37;;
4011;SDS011;2020;48.682;9.024;2024-03-25T05:28:39;2.63;;;2.43;;
4011;SDS011;2020;48.682;9.024;2024-03-25T05:31:06;8.43;;;4.40;;
4011;SDS011;2020;48.682;9.024;2024-03-25T05:33:32;11.10;;;6.40;;
4011;SDS011;2020;48.682;9.024;2024-03-25T05:35:58;4.77;;;3.77;;
4011;SDS011;2020;48.682;9.024;2024-03-25T05:38:24;7.40;;;4.23;;
4011;SDS011;2020;48.682;9.024;2024-03-25T05:40:49;7.00;;;2.87;;
4011;SDS011;2020;48.682;9.024;2024-03-25T05:43:14;4.87;;;3.17;;
4011;SDS011;2020;48.682;9.024;2024-03-25T05:45:40;2.03;;;1.90;;
4011;SDS011;2020;48.682;9.024;2024-03-25T05:48:05;3.37;;;2.30;;
4011;SDS011;2020;48.682;9.024;2024-03-25T05:50:31;3.77;;;3.07;;
4011;SDS011;2020;48.682;9.024;2024-03-25T05:52:56;2.10;;;1.70;;
4011;SDS011;2020;48.682;9.024;2024-03-25T05:55:21;2.17;;;2.07;;
4011;SDS011;2020;48.682;9.024;2024-03-25T05:57:46;2.43;;;2.23;;
4011;SDS011;2020;48.682;9.024;2024-03-25T06:00:12;5.70;;;1.63;;
4011;SDS011;2020;48.682;9.024;2024-03-25T06:02:38;2.30;;;1.87;;
4011;SDS011;2020;48.682;9.024;2024-03-25T06:05:03;2.53;;;2.40;;
4011;SDS011;2020;48.682;9.024;2024-03-25T06:07:30;2.33;;;2.20;;
4011;SDS011;2020;48.682;9.024;2024-03-25T06:09:55;4.30;;;2.80;;
4011;SDS011;2020;48.682;9.024;2024-03-25T06:12:20;2.90;;;2.43;;
4011;SDS011;2020;48.682;9.024;2024-03-25T06:14:45;3.23;;;3.03;;
4011;SDS011;2020;48.682;9.024;2024-03-25T06:17:11;3.20;;;2.90;;
4011;SDS011;2020;48.682;9.024;2024-03-25T06:19:36;5.63;;;3.40;;
4011;SDS011;2020;48.682;9.024;2024-03-25T06:22:01;6.17;;;4.00;;
4011;SDS011;2020;48.682;9.024;2024-03-25T06:24:26;4.00;;;3.70;;
4011;SDS011;2020;48.682;9.024;2024-03-25T06:26:51;3.90;;;3.07;;
4011;SDS011;2020;48.682;9.024;2024-03-25T06:29:17;5.70;;;2.70;;
4011;SDS011;2020;48.682;9.024;2024-03-25T06:31:42;3.77;;;2.20;;
4011;SDS011;2020;48.682;9.024;2024-03-25T06:34:26;2.30;;;2.03;;
4011;SDS011;2020;48.682;9.024;2024-03-25T06:36:51;2.67;;;2.47;;
4011;SDS011;2020;48.682;9.024;2024-03-25T06:39:16;4.03;;;2.73;;
4011;SDS011;2020;48.682;9.024;2024-03-25T06:41:42;5.87;;;3.87;;
4011;SDS011;2020;48.682;9.024;2024-03-25T06:44:08;2.80;;;2.60;;
4011;SDS011;2020;48.682;9.024;2024-03-25T06:46:33;2.40;;;2.30;;
4011;SDS011;2020;48.682;9.024;2024-03-25T06:48:59;2.73;;;2.53;;
4011;SDS011;2020;48.682;9.024;2024-03-25T06:51:24;3.27;;;2.97;;
4011;SDS011;2020;48.682;9.024;2024-03-25T06:53:49;4.00;;;3.10;;
4011;SDS011;2020;48.682;9.024;2024-03-25T06:56:15;4.47;;;2.90;;
4011;SDS011;2020;48.682;9.024;2024-03-25T06:58:41;5.10;;;2.97;;
4011;SDS011;2020;48.682;9.024;2024-03-25T07:01:07;2.70;;;2.60;;
4011;SDS011;2020;48.682;9.024;2024-03-25T07:03:33;2.90;;;2.70;;
4011;SDS011;2020;48.682;9.024;2024-03-25T07:05:59;2.87;;;2.57;;
4011;SDS011;2020;48.682;9.024;2024-03-25T07:08:25;3.27;;;2.43;;
4011;SDS011;2020;48.682;9.024;2024-03-25T07:10:51;2.77;;;2.43;;
4011;SDS011;2020;48.682;9.024;2024-03-25T07:13:17;2.80;;;1.80;;
4011;SDS011;2020;48.682;9.024;2024-03-25T07:15:43;6.50;;;2.40;;
4011;SDS011;2020;48.682;9.024;2024-03-25T07:18:08;5.40;;;2.37;;
4011;SDS011;2020;48.682;9.024;2024-03-25T07:20:35;2.70;;;2.50;;
4011;SDS011;2020;48.682;9.024;2024-03-25T07:23:01;3.30;;;3.10;;
4011;SDS011;2020;48.682;9.024;2024-03-25T07:25:28;4.03;;;3.40;;
4011;SDS011;2020;48.682;9.024;2024-03-25T07:27:54;2.50;;;2.30;;
4011;SDS011;2020;48.682;9.024;2024-03-25T07:30:19;3.13;;;2.13;;
4011;SDS011;2020;48.682;9.024;2024-03-25T07:32:47;2.77;;;2.67;;
4011;SDS011;2020;48.682;9.024;2024-03-25T07:35:12;2.40;;;2.23;;
4011;SDS011;2020;48.682;9.024;2024-03-25T07:37:38;3.60;;;3.37;;
4011;SDS011;2020;48.682;9.024;2024-03-25T07:40:04;2.10;;;2.00;;
4011;SDS011;2020;48.682;9.024;2024-03-25T07:42:30;4.33;;;1.73;;
4011;SDS011;2020;48.682;9.024;2024-03-25T07:44:55;2.00;;;2.00;;
4011;SDS011;2020;48.682;9.024;2024-03-25T07:47:20;2.10;;;2.00;;
4011;SDS011;2020;48.682;9.024;2024-03-25T07:49:45;5.37;;;2.50;;
4011;SDS011;2020;48.682;9.024;2024-03-25T07:52:11;3.07;;;2.87;;
4011;SDS011;2020;48.682;9.024;2024-03-25T07:54:36;2.97;;;2.57;;
4011;SDS011;2020;48.682;9.024;2024-03-25T07:57:02;3.27;;;3.07;;
4011;SDS011;2020;48.682;9.024;2024-03-25T07:59:28;2.70;;;2.00;;
4011;SDS011;2020;48.682;9.024;2024-03-25T08:01:54;2.90;;;2.70;;
4011;SDS011;2020;48.682;9.024;2024-03-25T08:04:19;3.80;;;2.33;;
4011;SDS011;2020;48.682;9.024;2024-03-25T08:06:44;2.50;;;2.40;;
4011;SDS011;2020;48.682;9.024;2024-03-25T08:09:09;3.70;;;2.70;;
4011;SDS011;2020;48.682;9.024;2024-03-25T08:11:35;3.13;;;2.73;;
4011;SDS011;2020;48.682;9.024;2024-03-25T08:14:00;2.13;;;1.97;;
4011;SDS011;2020;48.682;9.024;2024-03-25T08:16:25;4.03;;;2.70;;
4011;SDS011;2020;48.682;9.024;2024-03-25T08:18:51;4.30;;;2.27;;
4011;SDS011;2020;48.682;9.024;2024-03-25T08:21:16;2.47;;;2.27;;
4011;SDS011;2020;48.682;9.024;2024-03-25T08:23:44;2.60;;;2.40;;
4011;SDS011;2020;48.682;9.024;2024-03-25T08:26:10;3.33;;;2.60;;
4011;SDS011;2020;48.682;9.024;2024-03-25T08:28:35;4.33;;;2.27;;
4011;SDS011;2020;48.682;9.024;2024-03-25T08:31:00;2.50;;;2.30;;
4011;SDS011;2020;48.682;9.024;2024-03-25T08:33:26;3.07;;;1.77;;
4011;SDS011;2020;48.682;9.024;2024-03-25T08:35:51;1.90;;;1.80;;
4011;SDS011;2020;48.682;9.024;2024-03-25T08:38:16;1.70;;;1.67;;
4011;SDS011;2020;48.682;9.024;2024-03-25T08:40:41;2.40;;;2.30;;
4011;SDS011;2020;48.682;9.024;2024-03-25T08:43:07;2.40;;;2.30;;
4011;SDS011;2020;48.682;9.024;2024-03-25T08:45:32;1.83;;;1.67;;
4011;SDS011;2020;48.682;9.024;2024-03-25T08:47:57;2.40;;;2.30;;
4011;SDS011;2020;48.682;9.024;2024-03-25T08:50:23;2.27;;;2.17;;
4011;SDS011;2020;48.682;9.024;2024-03-25T08:52:48;1.83;;;1.73;;
4011;SDS011;2020;48.682;9.024;2024-03-25T08:55:14;1.77;;;1.67;;
4011;SDS011;2020;48.682;9.024;2024-03-25T08:57:39;2.10;;;1.93;;
4011;SDS011;2020;48.682;9.024;2024-03-25T09:00:04;2.00;;;1.73;;
4011;SDS011;2020;48.682;9.024;2024-03-25T09:02:35;4.87;;;2.70;;
4011;SDS011;2020;48.682;9.024;2024-03-25T09:05:00;1.83;;;1.73;;
4011;SDS011;2020;48.682;9.024;2024-03-25T09:07:25;2.43;;;1.87;;
4011;SDS011;2020;48.682;9.024;2024-03-25T09:09:51;4.00;;;1.57;;
4011;SDS011;2020;48.682;9.024;2024-03-25T09:12:34;6.33;;;2.20;;
4011;SDS011;2020;48.682;9.024;2024-03-25T09:14:59;4.93;;;1.60;;
4011;SDS011;2020;48.682;9.024;2024-03-25T09:17:25;2.63;;;1.43;;
4011;SDS011;2020;48.682;9.024;2024-03-25T09:19:50;2.40;;;1.70;;
4011;SDS011;2020;48.682;9.024;2024-03-25T09:22:15;1.47;;;1.47;;
4011;SDS011;2020;48.682;9.024;2024-03-25T09:24:40;1.80;;;1.70;;
4011;SDS011;2020;48.682;9.024;2024-03-25T09:27:06;1.83;;;1.80;;
4011;SDS011;2020;48.682;9.024;2024-03-25T09:29:31;2.40;;;2.20;;
4011;SDS011;2020;48.682;9.024;2024-03-25T09:31:56;2.73;;;1.57;;
4011;SDS011;2020;48.682;9.024;2024-03-25T09:34:21;3.90;;;2.37;;
4011;SDS011;2020;48.682;9.024;2024-03-25T09:36:47;1.20;;;1.10;;
4011;SDS011;2020;48.682;9.024;2024-03-25T09:39:12;1.67;;;1.50;;
4011;SDS011;2020;48.682;9.024;2024-03-25T09:41:38;1.73;;;1.63;;
4011;SDS011;2020;48.682;9.024;2024-03-25T09:44:07;1.63;;;1.40;;
4011;SDS011;2020;48.682;9.024;2024-03-25T09:46:33;2.70;;;1.53;;
4011;SDS011;2020;48.682;9.024;2024-03-25T09:48:59;1.57;;;1.47;;
4011;SDS011;2020;48.682;9.024;2024-03-25T09:51:24;2.53;;;1.40;;
4011;SDS011;2020;48.682;9.024;2024-03-25T09:53:50;3.80;;;2.10;;
4011;SDS011;2020;48.682;9.024;2024-03-25T09:56:15;1.43;;;1.43;;
4011;SDS011;2020;48.682;9.024;2024-03-25T09:58:41;2.07;;;1.33;;
4011;SDS011;2020;48.682;9.024;2024-03-25T10:01:08;1.40;;;1.40;;
4011;SDS011;2020;48.682;9.024;2024-03-25T10:03:34;1.40;;;1.30;;
4011;SDS011;2020;48.682;9.024;2024-03-25T10:05:59;1.33;;;1.33;;
4011;SDS011;2020;48.682;9.024;2024-03-25T10:08:24;1.67;;;1.50;;
4011;SDS011;2020;48.682;9.024;2024-03-25T10:10:55;2.10;;;1.40;;
4011;SDS011;2020;48.682;9.024;2024-03-25T10:13:20;1.93;;;1.73;;
4011;SDS011;2020;48.682;9.024;2024-03-25T10:15:49;2.30;;;1.20;;
4011;SDS011;2020;48.682;9.024;2024-03-25T10:18:15;1.30;;;1.30;;
4011;SDS011;2020;48.682;9.024;2024-03-25T10:20:52;1.73;;;1.63;;
4011;SDS011;2020;48.682;9.024;2024-03-25T10:23:25;1.40;;;1.30;;
4011;SDS011;2020;48.682;9.024;2024-03-25T10:25:53;1.40;;;1.30;;
4011;SDS011;2020;48.682;9.024;2024-03-25T10:28:19;1.77;;;1.77;;
4011;SDS011;2020;48.682;9.024;2024-03-25T10:30:45;2.13;;;1.90;;
4011;SDS011;2020;48.682;9.024;2024-03-25T10:33:10;2.80;;;1.80;;
4011;SDS011;2020;48.682;9.024;2024-03-25T10:35:36;2.10;;;2.00;;
4011;SDS011;2020;48.682;9.024;2024-03-25T10:38:03;2.83;;;1.50;;
4011;SDS011;2020;48.682;9.024;2024-03-25T10:40:35;1.70;;;1.70;;
4011;SDS011;2020;48.682;9.024;2024-03-25T10:45:31;2.77;;;2.37;;
4011;SDS011;2020;48.682;9.024;2024-03-25T10:48:09;1.87;;;1.77;;
4011;SDS011;2020;48.682;9.024;2024-03-25T10:50:40;2.20;;;1.70;;
4011;SDS011;2020;48.682;9.024;2024-03-25T10:53:07;2.63;;;1.27;;
4011;SDS011;2020;48.682;9.024;2024-03-25T10:55:33;3.43;;;1.93;;
4011;SDS011;2020;48.682;9.024;2024-03-25T10:58:00;1.60;;;1.60;;
4011;SDS011;2020;48.682;9.024;2024-03-25T11:00:27;2.70;;;1.27;;
4011;SDS011;2020;48.682;9.024;2024-03-25T11:02:53;1.77;;;1.67;;
4011;SDS011;2020;48.682;9.024;2024-03-25T11:05:18;1.60;;;1.50;;
4011;SDS011;2020;48.682;9.024;2024-03-25T11:07:44;1.37;;;1.10;;
4011;SDS011;2020;48.682;9.024;2024-03-25T11:10:11;1.93;;;1.83;;
4011;SDS011;2020;48.682;9.024;2024-03-25T11:12:37;2.67;;;1.50;;
4011;SDS011;2020;48.682;9.024;2024-03-25T11:15:05;1.67;;;1.57;;
4011;SDS011;2020;48.682;9.024;2024-03-25T11:17:32;1.53;;;1.43;;
4011;SDS011;2020;48.682;9.024;2024-03-25T11:20:11;2.07;;;1.33;;
4011;SDS011;2020;48.682;9.024;2024-03-25T11:22:47;2.67;;;1.50;;
4011;SDS011;2020;48.682;9.024;2024-03-25T11:25:13;1.53;;;1.43;;
4011;SDS011;2020;48.682;9.024;2024-03-25T11:27:39;1.50;;;1.50;;
4011;SDS011;2020;48.682;9.024;2024-03-25T11:30:08;1.60;;;1.50;;
4011;SDS011;2020;48.682;9.024;2024-03-25T11:32:43;1.50;;;1.40;;
4011;SDS011;2020;48.682;9.024;2024-03-25T11:35:16;1.50;;;1.50;;
4011;SDS011;2020;48.682;9.024;2024-03-25T11:37:41;2.50;;;1.30;;
4011;SDS011;2020;48.682;9.024;2024-03-25T11:40:08;1.27;;;0.90;;
4011;SDS011;2020;48.682;9.024;2024-03-25T11:42:37;1.63;;;1.53;;
4011;SDS011;2020;48.682;9.024;2024-03-25T11:45:03;1.37;;;1.17;;
4011;SDS011;2020;48.682;9.024;2024-03-25T11:47:29;2.20;;;1.30;;
4011;SDS011;2020;48.682;9.024;2024-03-25T11:49:56;1.00;;;1.00;;
4011;SDS011;2020;48.682;9.024;2024-03-25T11:52:21;1.90;;;1.40;;
4011;SDS011;2020;48.682;9.024;2024-03-25T11:54:53;1.30;;;1.20;;
4011;SDS011;2020;48.682;9.024;2024-03-25T11:57:19;1.60;;;1.37;;
4011;SDS011;2020;48.682;9.024;2024-03-25T11:59:44;1.20;;;1.20;;
4011;SDS011;2020;48.682;9.024;2024-03-25T12:02:09;2.23;;;1.47;;
4011;SDS011;2020;48.682;9.024;2024-03-25T12:04:35;2.23;;;1.50;;
4011;SDS011;2020;48.682;9.024;2024-03-25T12:07:00;1.87;;;1.77;;
4011;SDS011;2020;48.682;9.024;2024-03-25T12:09:25;1.50;;;1.40;;
4011;SDS011;2020;48.682;9.024;2024-03-25T12:12:09;1.20;;;1.20;;
4011;SDS011;2020;48.682;9.024;2024-03-25T12:14:34;3.57;;;1.93;;
4011;SDS011;2020;48.682;9.024;2024-03-25T12:17:00;2.50;;;1.53;;
4011;SDS011;2020;48.682;9.024;2024-03-25T12:19:26;2.00;;;1.90;;
4011;SDS011;2020;48.682;9.024;2024-03-25T12:21:58;1.93;;;1.57;;
4011;SDS011;2020;48.682;9.024;2024-03-25T12:24:24;1.73;;;1.40;;
4011;SDS011;2020;48.682;9.024;2024-03-25T12:26:50;1.20;;;0.93;;
4011;SDS011;2020;48.682;9.024;2024-03-25T12:29:16;1.57;;;1.47;;
4011;SDS011;2020;48.682;9.024;2024-03-25T12:31:41;1.70;;;1.60;;
4011;SDS011;2020;48.682;9.024;2024-03-25T12:34:12;2.03;;;1.83;;
4011;SDS011;2020;48.682;9.024;2024-03-25T12:36:38;1.60;;;1.60;;
4011;SDS011;2020;48.682;9.024;2024-03-25T12:39:03;1.47;;;1.47;;
4011;SDS011;2020;48.682;9.024;2024-03-25T12:41:28;1.57;;;1.57;;
4011;SDS011;2020;48.682;9.024;2024-03-25T12:43:54;2.60;;;1.80;;
4011;SDS011;2020;48.682;9.024;2024-03-25T12:46:19;1.47;;;1.37;;
4011;SDS011;2020;48.682;9.024;2024-03-25T12:48:44;3.27;;;1.40;;
4011;SDS011;2020;48.682;9.024;2024-03-25T12:51:14;2.70;;;2.47;;
4011;SDS011;2020;48.682;9.024;2024-03-25T12:53:40;1.63;;;1.37;;
4011;SDS011;2020;48.682;9.024;2024-03-25T12:56:05;1.93;;;1.40;;
4011;SDS011;2020;48.682;9.024;2024-03-25T12:58:31;1.73;;;1.10;;
4011;SDS011;2020;48.682;9.024;2024-03-25T13:00:56;1.80;;;1.73;;
4011;SDS011;2020;48.682;9.024;2024-03-25T13:03:22;1.43;;;1.33;;
4011;SDS011;2020;48.682;9.024;2024-03-25T13:05:47;1.63;;;1.53;;
4011;SDS011;2020;48.682;9.024;2024-03-25T13:08:12;1.83;;;1.40;;
4011;SDS011;2020;48.682;9.024;2024-03-25T13:10:37;1.50;;;1.40;;
4011;SDS011;2020;48.682;9.024;2024-03-25T13:13:03;1.43;;;1.43;;
4011;SDS011;2020;48.682;9.024;2024-03-25T13:15:30;2.47;;;1.30;;
4011;SDS011;2020;48.682;9.024;2024-03-25T13:17:56;1.50;;;1.50;;
4011;SDS011;2020;48.682;9.024;2024-03-25T13:20:21;4.93;;;1.10;;
4011;SDS011;2020;48.682;9.024;2024-03-25T13:22:46;2.43;;;1.40;;
4011;SDS011;2020;48.682;9.024;2024-03-25T13:25:13;1.00;;;1.00;;
4011;SDS011;2020;48.682;9.024;2024-03-25T13:27:39;1.73;;;1.00;;
4011;SDS011;2020;48.682;9.024;2024-03-25T13:30:05;1.07;;;0.80;;
4011;SDS011;2020;48.682;9.024;2024-03-25T13:32:30;1.00;;;1.00;;
4011;SDS011;2020;48.682;9.024;2024-03-25T13:34:56;0.73;;;0.73;;
4011;SDS011;2020;48.682;9.024;2024-03-25T13:37:21;1.00;;;1.00;;
4011;SDS011;2020;48.682;9.024;2024-03-25T13:39:46;1.50;;;1.00;;
4011;SDS011;2020;48.682;9.024;2024-03-25T13:42:11;1.73;;;1.20;;
4011;SDS011;2020;48.682;9.024;2024-03-25T13:44:37;2.13;;;1.17;;
4011;SDS011;2020;48.682;9.024;2024-03-25T13:47:02;1.60;;;1.50;;
4011;SDS011;2020;48.682;9.024;2024-03-25T13:49:27;1.90;;;1.80;;
4011;SDS011;2020;48.682;9.024;2024-03-25T13:51:57;4.40;;;1.30;;
4011;SDS011;2020;48.682;9.024;2024-03-25T13:54:28;1.00;;;1.00;;
4011;SDS011;2020;48.682;9.024;2024-03-25T13:56:55;6.10;;;1.67;;
4011;SDS011;2020;48.682;9.024;2024-03-25T13:59:20;1.60;;;1.50;;
4011;SDS011;2020;48.682;9.024;2024-03-25T14:01:45;1.57;;;1.47;;
4011;SDS011;2020;48.682;9.024;2024-03-25T14:04:11;1.33;;;1.23;;
4011;SDS011;2020;48.682;9.024;2024-03-25T14:06:36;1.10;;;1.10;;
4011;SDS011;2020;48.682;9.024;2024-03-25T14:09:02;2.10;;;1.50;;
4011;SDS011;2020;48.682;9.024;2024-03-25T14:11:35;1.30;;;1.30;;
4011;SDS011;2020;48.682;9.024;2024-03-25T14:14:01;1.33;;;1.33;;
4011;SDS011;2020;48.682;9.024;2024-03-25T14:16:27;1.20;;;1.20;;
4011;SDS011;2020;48.682;9.024;2024-03-25T14:18:53;1.40;;;1.40;;
4011;SDS011;2020;48.682;9.024;2024-03-25T14:21:18;2.20;;;1.60;;
4011;SDS011;2020;48.682;9.024;2024-03-25T14:23:44;1.50;;;1.40;;
4011;SDS011;2020;48.682;9.024;2024-03-25T14:26:11;1.40;;;1.40;;
4011;SDS011;2020;48.682;9.024;2024-03-25T14:28:37;1.53;;;1.43;;
4011;SDS011;2020;48.682;9.024;2024-03-25T14:31:03;1.40;;;1.40;;
4011;SDS011;2020;48.682;9.024;2024-03-25T14:33:28;1.50;;;1.50;;
4011;SDS011;2020;48.682;9.024;2024-03-25T14:35:54;2.03;;;1.63;;
4011;SDS011;2020;48.682;9.024;2024-03-25T14:38:19;1.37;;;1.27;;
4011;SDS011;2020;48.682;9.024;2024-03-25T14:40:46;1.33;;;1.20;;
4011;SDS011;2020;48.682;9.024;2024-03-25T14:43:11;1.70;;;1.60;;
4011;SDS011;2020;48.682;9.024;2024-03-25T14:45:37;3.70;;;1.40;;
4011;SDS011;2020;48.682;9.024;2024-03-25T14:48:02;2.30;;;1.67;;
4011;SDS011;2020;48.682;9.024;2024-03-25T14:50:27;1.80;;;1.30;;
4011;SDS011;2020;48.682;9.024;2024-03-25T14:52:52;1.40;;;1.40;;
4011;SDS011;2020;48.682;9.024;2024-03-25T14:55:18;1.10;;;1.10;;
4011;SDS011;2020;48.682;9.024;2024-03-25T14:57:43;1.37;;;1.27;;
4011;SDS011;2020;48.682;9.024;2024-03-25T15:00:08;1.20;;;1.10;;
4011;SDS011;2020;48.682;9.024;2024-03-25T15:02:34;1.20;;;1.10;;
4011;SDS011;2020;48.682;9.024;2024-03-25T15:04:59;1.83;;;1.73;;
4011;SDS011;2020;48.682;9.024;2024-03-25T15:07:25;1.00;;;1.00;;
4011;SDS011;2020;48.682;9.024;2024-03-25T15:09:51;2.00;;;1.87;;